sensor_id;sensor_type;location;lat;lon;timestamp;pressure;altitude;pressure_sealevel;temperature;humidity
24154;BME280;12312;53.362;-1.518;2022-08-20T00:00:41;99262.94;;;14.05;76.37
24154;BME280;12312;53.362;-1.518;2022-08-20T00:03:18;99269.13;;;14.05;76.38
24154;BME280;12312;53.362;-1.518;2022-08-20T00:05:51;99269.97;;;14.06;76.72
24154;BME280;12312;53.362;-1.518;2022-08-20T00:08:19;99261.47;;;14.01;77.18
24154;BME280;12312;53.362;-1.518;2022-08-20T00:10:47;99260.06;;;13.97;77.85
24154;BME280;12312;53.362;-1.518;2022-08-20T00:13:26;99269.06;;;13.96;77.94
24154;BME280;12312;53.362;-1.518;2022-08-20T00:15:54;99269.22;;;13.94;78.15
24154;BME280;12312;53.362;-1.518;2022-08-20T00:18:20;99274.81;;;13.91;79.07
24154;BME280;12312;53.362;-1.518;2022-08-20T00:20:50;99265.47;;;13.86;79.18
24154;BME280;12312;53.362;-1.518;2022-08-20T00:23:16;99264.13;;;13.91;79.32
24154;BME280;12312;53.362;-1.518;2022-08-20T00:25:44;99266.72;;;13.82;80.29
24154;BME280;12312;53.362;-1.518;2022-08-20T00:28:12;99263.38;;;13.89;80.31
24154;BME280;12312;53.362;-1.518;2022-08-20T00:30:40;99259.16;;;13.87;80.18
24154;BME280;12312;53.362;-1.518;2022-08-20T00:33:20;99263.56;;;13.77;80.89
24154;BME280;12312;53.362;-1.518;2022-08-20T00:35:49;99256.53;;;13.76;81.21
24154;BME280;12312;53.362;-1.518;2022-08-20T00:38:17;99243.16;;;13.76;81.01
24154;BME280;12312;53.362;-1.518;2022-08-20T00:40:53;99239.63;;;13.75;81.14
24154;BME280;12312;53.362;-1.518;2022-08-20T00:43:48;99237.56;;;13.79;81.07
24154;BME280;12312;53.362;-1.518;2022-08-20T00:46:24;99237.69;;;13.77;81.25
24154;BME280;12312;53.362;-1.518;2022-08-20T00:48:54;99239.88;;;13.72;81.61
24154;BME280;12312;53.362;-1.518;2022-08-20T00:51:34;99235.13;;;13.76;81.38
24154;BME280;12312;53.362;-1.518;2022-08-20T00:54:29;99239.75;;;13.74;81.86
24154;BME280;12312;53.362;-1.518;2022-08-20T00:57:06;99238.06;;;13.73;82.13
24154;BME280;12312;53.362;-1.518;2022-08-20T00:59:35;99244.50;;;13.70;82.89
24154;BME280;12312;53.362;-1.518;2022-08-20T01:02:04;99242.47;;;13.42;83.54
24154;BME280;12312;53.362;-1.518;2022-08-20T01:04:34;99233.16;;;13.37;84.01
24154;BME280;12312;53.362;-1.518;2022-08-20T01:07:02;99230.63;;;13.35;84.33
24154;BME280;12312;53.362;-1.518;2022-08-20T01:09:30;99234.38;;;13.33;83.92
24154;BME280;12312;53.362;-1.518;2022-08-20T01:11:56;99228.41;;;13.29;83.87
24154;BME280;12312;53.362;-1.518;2022-08-20T01:14:22;99230.00;;;13.32;83.84
24154;BME280;12312;53.362;-1.518;2022-08-20T01:16:50;99222.81;;;13.32;84.09
24154;BME280;12312;53.362;-1.518;2022-08-20T01:19:26;99218.25;;;13.23;84.78
24154;BME280;12312;53.362;-1.518;2022-08-20T01:21:54;99219.97;;;13.45;84.57
24154;BME280;12312;53.362;-1.518;2022-08-20T01:24:26;99211.78;;;13.37;85.18
24154;BME280;12312;53.362;-1.518;2022-08-20T01:26:57;99215.75;;;13.42;85.22
24154;BME280;12312;53.362;-1.518;2022-08-20T01:29:28;99219.06;;;13.35;85.51
24154;BME280;12312;53.362;-1.518;2022-08-20T01:31:57;99214.84;;;13.53;84.74
24154;BME280;12312;53.362;-1.518;2022-08-20T01:34:26;99220.72;;;13.47;84.55
24154;BME280;12312;53.362;-1.518;2022-08-20T01:36:54;99220.50;;;13.39;85.35
24154;BME280;12312;53.362;-1.518;2022-08-20T01:39:30;99220.75;;;13.36;85.93
24154;BME280;12312;53.362;-1.518;2022-08-20T01:44:29;99222.88;;;13.21;85.94
24154;BME280;12312;53.362;-1.518;2022-08-20T01:46:55;99218.38;;;13.22;85.77
24154;BME280;12312;53.362;-1.518;2022-08-20T01:51:48;99226.13;;;13.25;85.34
24154;BME280;12312;53.362;-1.518;2022-08-20T01:54:14;99231.03;;;13.20;85.21
24154;BME280;12312;53.362;-1.518;2022-08-20T01:56:52;99238.34;;;13.07;85.46
24154;BME280;12312;53.362;-1.518;2022-08-20T01:59:19;99227.56;;;12.97;85.89
24154;BME280;12312;53.362;-1.518;2022-08-20T02:01:45;99236.41;;;13.09;86.08
24154;BME280;12312;53.362;-1.518;2022-08-20T02:04:11;99226.50;;;13.20;85.67
24154;BME280;12312;53.362;-1.518;2022-08-20T02:06:41;99227.88;;;13.15;86.33
24154;BME280;12312;53.362;-1.518;2022-08-20T02:09:08;99214.50;;;13.26;85.40
24154;BME280;12312;53.362;-1.518;2022-08-20T02:11:35;99206.78;;;13.32;85.46
24154;BME280;12312;53.362;-1.518;2022-08-20T02:14:04;99207.91;;;13.30;85.30
24154;BME280;12312;53.362;-1.518;2022-08-20T02:16:35;99208.13;;;13.38;85.23
24154;BME280;12312;53.362;-1.518;2022-08-20T02:19:55;99203.63;;;13.38;84.92
24154;BME280;12312;53.362;-1.518;2022-08-20T02:25:05;99202.50;;;13.41;85.14
24154;BME280;12312;53.362;-1.518;2022-08-20T02:27:31;99192.06;;;13.38;85.35
24154;BME280;12312;53.362;-1.518;2022-08-20T02:29:57;99203.28;;;13.32;85.24
24154;BME280;12312;53.362;-1.518;2022-08-20T02:32:23;99193.41;;;13.32;85.57
24154;BME280;12312;53.362;-1.518;2022-08-20T02:34:48;99187.50;;;13.29;85.90
24154;BME280;12312;53.362;-1.518;2022-08-20T02:37:14;99183.59;;;13.33;85.43
24154;BME280;12312;53.362;-1.518;2022-08-20T02:40:08;99178.84;;;13.36;85.53
24154;BME280;12312;53.362;-1.518;2022-08-20T02:42:35;99177.84;;;13.37;85.73
24154;BME280;12312;53.362;-1.518;2022-08-20T02:45:01;99171.22;;;13.32;86.00
24154;BME280;12312;53.362;-1.518;2022-08-20T02:47:27;99164.22;;;13.40;85.60
24154;BME280;12312;53.362;-1.518;2022-08-20T02:49:54;99172.13;;;13.42;85.22
24154;BME280;12312;53.362;-1.518;2022-08-20T02:52:20;99164.47;;;13.37;85.38
24154;BME280;12312;53.362;-1.518;2022-08-20T02:54:46;99163.41;;;13.40;85.52
24154;BME280;12312;53.362;-1.518;2022-08-20T02:57:18;99167.28;;;13.36;85.33
24154;BME280;12312;53.362;-1.518;2022-08-20T02:59:47;99174.91;;;13.40;85.24
24154;BME280;12312;53.362;-1.518;2022-08-20T03:02:14;99176.28;;;13.35;85.63
24154;BME280;12312;53.362;-1.518;2022-08-20T03:04:42;99186.13;;;13.34;85.58
24154;BME280;12312;53.362;-1.518;2022-08-20T03:07:09;99169.00;;;13.37;85.75
24154;BME280;12312;53.362;-1.518;2022-08-20T03:09:35;99175.69;;;13.31;85.75
24154;BME280;12312;53.362;-1.518;2022-08-20T03:12:02;99172.63;;;13.36;85.78
24154;BME280;12312;53.362;-1.518;2022-08-20T03:14:29;99180.56;;;13.26;86.16
24154;BME280;12312;53.362;-1.518;2022-08-20T03:16:55;99171.38;;;13.19;86.33
24154;BME280;12312;53.362;-1.518;2022-08-20T03:19:21;99167.16;;;13.17;86.29
24154;BME280;12312;53.362;-1.518;2022-08-20T03:21:47;99167.16;;;13.17;86.68
24154;BME280;12312;53.362;-1.518;2022-08-20T03:24:14;99164.00;;;13.12;86.83
24154;BME280;12312;53.362;-1.518;2022-08-20T03:26:42;99169.47;;;13.10;86.79
24154;BME280;12312;53.362;-1.518;2022-08-20T03:29:08;99161.81;;;13.17;86.65
24154;BME280;12312;53.362;-1.518;2022-08-20T03:31:34;99177.75;;;13.07;87.08
24154;BME280;12312;53.362;-1.518;2022-08-20T03:33:59;99169.88;;;13.06;87.37
24154;BME280;12312;53.362;-1.518;2022-08-20T03:36:27;99164.78;;;13.03;87.29
24154;BME280;12312;53.362;-1.518;2022-08-20T03:38:57;99160.09;;;13.16;87.01
24154;BME280;12312;53.362;-1.518;2022-08-20T03:41:24;99163.50;;;13.18;87.08
24154;BME280;12312;53.362;-1.518;2022-08-20T03:43:49;99157.03;;;13.20;87.32
24154;BME280;12312;53.362;-1.518;2022-08-20T03:46:15;99151.81;;;13.19;87.30
24154;BME280;12312;53.362;-1.518;2022-08-20T03:48:41;99158.94;;;13.29;86.45
24154;BME280;12312;53.362;-1.518;2022-08-20T03:51:08;99166.13;;;13.29;86.61
24154;BME280;12312;53.362;-1.518;2022-08-20T03:53:34;99145.38;;;13.21;86.92
24154;BME280;12312;53.362;-1.518;2022-08-20T03:56:03;99150.13;;;13.18;86.97
24154;BME280;12312;53.362;-1.518;2022-08-20T03:58:31;99148.97;;;13.11;87.39
24154;BME280;12312;53.362;-1.518;2022-08-20T04:00:58;99157.56;;;13.14;87.28
24154;BME280;12312;53.362;-1.518;2022-08-20T04:03:25;99143.94;;;13.17;87.19
24154;BME280;12312;53.362;-1.518;2022-08-20T04:05:52;99146.59;;;13.17;87.34
24154;BME280;12312;53.362;-1.518;2022-08-20T04:08:21;99147.97;;;13.12;88.37
24154;BME280;12312;53.362;-1.518;2022-08-20T04:10:49;99153.97;;;13.25;87.21
24154;BME280;12312;53.362;-1.518;2022-08-20T04:13:20;99148.38;;;13.28;87.06
24154;BME280;12312;53.362;-1.518;2022-08-20T04:15:47;99144.75;;;13.29;86.88
24154;BME280;12312;53.362;-1.518;2022-08-20T04:18:14;99139.41;;;13.29;86.79
24154;BME280;12312;53.362;-1.518;2022-08-20T04:20:46;99147.84;;;13.34;86.56
24154;BME280;12312;53.362;-1.518;2022-08-20T04:23:12;99134.13;;;13.38;86.40
24154;BME280;12312;53.362;-1.518;2022-08-20T04:25:40;99146.50;;;13.39;86.11
24154;BME280;12312;53.362;-1.518;2022-08-20T04:28:09;99150.41;;;13.35;86.13
24154;BME280;12312;53.362;-1.518;2022-08-20T04:30:35;99149.81;;;13.32;86.35
24154;BME280;12312;53.362;-1.518;2022-08-20T04:33:01;99146.88;;;13.35;86.27
24154;BME280;12312;53.362;-1.518;2022-08-20T04:35:28;99160.19;;;13.25;86.46
24154;BME280;12312;53.362;-1.518;2022-08-20T04:38:04;99157.63;;;13.24;86.92
24154;BME280;12312;53.362;-1.518;2022-08-20T04:40:32;99154.84;;;13.25;86.46
24154;BME280;12312;53.362;-1.518;2022-08-20T04:43:17;99158.53;;;13.13;86.81
24154;BME280;12312;53.362;-1.518;2022-08-20T04:45:44;99164.91;;;13.22;86.42
24154;BME280;12312;53.362;-1.518;2022-08-20T04:48:12;99171.63;;;13.16;86.91
24154;BME280;12312;53.362;-1.518;2022-08-20T04:50:39;99171.25;;;13.21;86.65
24154;BME280;12312;53.362;-1.518;2022-08-20T04:53:07;99175.88;;;13.19;87.29
24154;BME280;12312;53.362;-1.518;2022-08-20T04:55:34;99170.78;;;13.16;86.97
24154;BME280;12312;53.362;-1.518;2022-08-20T04:58:05;99167.84;;;13.19;86.73
24154;BME280;12312;53.362;-1.518;2022-08-20T05:00:32;99178.78;;;13.16;86.71
24154;BME280;12312;53.362;-1.518;2022-08-20T05:02:59;99167.94;;;13.08;86.94
24154;BME280;12312;53.362;-1.518;2022-08-20T05:05:25;99176.91;;;13.07;87.31
24154;BME280;12312;53.362;-1.518;2022-08-20T05:07:52;99174.34;;;13.05;87.18
24154;BME280;12312;53.362;-1.518;2022-08-20T05:10:20;99170.72;;;13.06;86.94
24154;BME280;12312;53.362;-1.518;2022-08-20T05:12:48;99173.03;;;13.00;87.81
24154;BME280;12312;53.362;-1.518;2022-08-20T05:15:14;99170.00;;;13.04;87.41
24154;BME280;12312;53.362;-1.518;2022-08-20T05:17:42;99175.72;;;13.00;87.85
24154;BME280;12312;53.362;-1.518;2022-08-20T05:20:12;99180.56;;;13.06;87.82
24154;BME280;12312;53.362;-1.518;2022-08-20T05:22:38;99182.97;;;13.09;88.05
24154;BME280;12312;53.362;-1.518;2022-08-20T05:25:05;99180.66;;;13.15;87.70
24154;BME280;12312;53.362;-1.518;2022-08-20T05:27:31;99176.13;;;13.16;87.64
24154;BME280;12312;53.362;-1.518;2022-08-20T05:30:01;99179.53;;;13.18;87.62
24154;BME280;12312;53.362;-1.518;2022-08-20T05:32:32;99177.19;;;13.24;87.69
24154;BME280;12312;53.362;-1.518;2022-08-20T05:35:00;99180.13;;;13.21;87.94
24154;BME280;12312;53.362;-1.518;2022-08-20T05:37:26;99164.41;;;13.28;87.48
24154;BME280;12312;53.362;-1.518;2022-08-20T05:39:53;99171.22;;;13.32;87.63
24154;BME280;12312;53.362;-1.518;2022-08-20T05:42:18;99177.63;;;13.29;87.22
24154;BME280;12312;53.362;-1.518;2022-08-20T05:44:44;99171.91;;;13.34;87.62
24154;BME280;12312;53.362;-1.518;2022-08-20T05:47:10;99170.31;;;13.42;87.66
24154;BME280;12312;53.362;-1.518;2022-08-20T05:49:36;99171.84;;;13.45;87.66
24154;BME280;12312;53.362;-1.518;2022-08-20T05:52:03;99168.75;;;13.40;87.66
24154;BME280;12312;53.362;-1.518;2022-08-20T05:54:30;99165.34;;;13.38;87.57
24154;BME280;12312;53.362;-1.518;2022-08-20T05:56:56;99163.28;;;13.41;87.74
24154;BME280;12312;53.362;-1.518;2022-08-20T05:59:22;99168.22;;;13.46;87.38
24154;BME280;12312;53.362;-1.518;2022-08-20T06:01:49;99159.47;;;13.44;87.51
24154;BME280;12312;53.362;-1.518;2022-08-20T06:04:15;99170.91;;;13.46;87.50
24154;BME280;12312;53.362;-1.518;2022-08-20T06:07:05;99163.13;;;13.43;87.72
24154;BME280;12312;53.362;-1.518;2022-08-20T06:09:32;99163.41;;;13.40;88.06
24154;BME280;12312;53.362;-1.518;2022-08-20T06:12:00;99156.06;;;13.42;88.13
24154;BME280;12312;53.362;-1.518;2022-08-20T06:14:26;99160.78;;;13.49;87.79
24154;BME280;12312;53.362;-1.518;2022-08-20T06:16:52;99169.13;;;13.56;87.86
24154;BME280;12312;53.362;-1.518;2022-08-20T06:19:18;99160.13;;;13.57;87.81
24154;BME280;12312;53.362;-1.518;2022-08-20T06:21:43;99149.69;;;13.54;87.47
24154;BME280;12312;53.362;-1.518;2022-08-20T06:24:09;99151.91;;;13.49;88.09
24154;BME280;12312;53.362;-1.518;2022-08-20T06:26:35;99151.91;;;13.49;88.19
24154;BME280;12312;53.362;-1.518;2022-08-20T06:29:02;99159.94;;;13.49;88.71
24154;BME280;12312;53.362;-1.518;2022-08-20T06:31:28;99161.09;;;13.56;88.30
24154;BME280;12312;53.362;-1.518;2022-08-20T06:33:54;99166.38;;;13.67;88.22
24154;BME280;12312;53.362;-1.518;2022-08-20T06:36:22;99161.66;;;13.80;87.76
24154;BME280;12312;53.362;-1.518;2022-08-20T06:38:48;99159.91;;;13.90;89.02
24154;BME280;12312;53.362;-1.518;2022-08-20T06:41:14;99163.00;;;13.95;88.31
24154;BME280;12312;53.362;-1.518;2022-08-20T06:43:40;99160.34;;;13.95;88.32
24154;BME280;12312;53.362;-1.518;2022-08-20T06:46:06;99167.25;;;13.97;88.40
24154;BME280;12312;53.362;-1.518;2022-08-20T06:48:32;99160.59;;;13.92;88.12
24154;BME280;12312;53.362;-1.518;2022-08-20T06:50:57;99156.44;;;13.99;88.28
24154;BME280;12312;53.362;-1.518;2022-08-20T06:53:23;99157.31;;;14.09;88.09
24154;BME280;12312;53.362;-1.518;2022-08-20T06:55:53;99153.09;;;14.16;87.81
24154;BME280;12312;53.362;-1.518;2022-08-20T06:58:20;99168.88;;;14.19;87.59
24154;BME280;12312;53.362;-1.518;2022-08-20T07:00:47;99163.66;;;14.17;87.99
24154;BME280;12312;53.362;-1.518;2022-08-20T07:03:13;99158.38;;;14.27;88.04
24154;BME280;12312;53.362;-1.518;2022-08-20T07:05:42;99155.16;;;14.33;87.82
24154;BME280;12312;53.362;-1.518;2022-08-20T07:08:09;99146.72;;;14.38;87.13
24154;BME280;12312;53.362;-1.518;2022-08-20T07:10:36;99150.16;;;14.49;87.15
24154;BME280;12312;53.362;-1.518;2022-08-20T07:13:01;99152.00;;;14.58;86.81
24154;BME280;12312;53.362;-1.518;2022-08-20T07:15:29;99148.78;;;14.64;86.08
24154;BME280;12312;53.362;-1.518;2022-08-20T07:17:57;99145.97;;;14.75;86.15
24154;BME280;12312;53.362;-1.518;2022-08-20T07:20:25;99146.84;;;14.85;85.37
24154;BME280;12312;53.362;-1.518;2022-08-20T07:22:52;99143.59;;;14.91;86.01
24154;BME280;12312;53.362;-1.518;2022-08-20T07:25:19;99131.88;;;15.02;85.30
24154;BME280;12312;53.362;-1.518;2022-08-20T07:27:46;99135.44;;;15.02;84.66
24154;BME280;12312;53.362;-1.518;2022-08-20T07:30:15;99141.47;;;15.04;85.23
24154;BME280;12312;53.362;-1.518;2022-08-20T07:33:00;99138.09;;;15.21;85.01
24154;BME280;12312;53.362;-1.518;2022-08-20T07:35:26;99138.91;;;15.31;85.18
24154;BME280;12312;53.362;-1.518;2022-08-20T07:37:52;99151.09;;;15.45;84.53
24154;BME280;12312;53.362;-1.518;2022-08-20T07:40:25;99152.19;;;15.61;84.04
24154;BME280;12312;53.362;-1.518;2022-08-20T07:42:55;99138.44;;;15.74;82.34
24154;BME280;12312;53.362;-1.518;2022-08-20T07:45:21;99141.69;;;15.87;81.35
24154;BME280;12312;53.362;-1.518;2022-08-20T07:47:48;99151.25;;;15.89;81.86
24154;BME280;12312;53.362;-1.518;2022-08-20T07:50:17;99151.38;;;15.97;81.73
24154;BME280;12312;53.362;-1.518;2022-08-20T07:52:44;99159.22;;;16.18;80.85
24154;BME280;12312;53.362;-1.518;2022-08-20T07:55:14;99157.88;;;16.32;79.79
24154;BME280;12312;53.362;-1.518;2022-08-20T07:57:43;99154.09;;;16.25;79.24
24154;BME280;12312;53.362;-1.518;2022-08-20T08:00:13;99153.31;;;16.42;78.09
24154;BME280;12312;53.362;-1.518;2022-08-20T08:02:39;99156.00;;;16.51;78.49
24154;BME280;12312;53.362;-1.518;2022-08-20T08:05:05;99155.41;;;16.75;78.63
24154;BME280;12312;53.362;-1.518;2022-08-20T08:07:33;99155.88;;;16.70;77.54
24154;BME280;12312;53.362;-1.518;2022-08-20T08:10:00;99151.34;;;16.71;77.27
24154;BME280;12312;53.362;-1.518;2022-08-20T08:12:32;99154.81;;;16.81;77.27
24154;BME280;12312;53.362;-1.518;2022-08-20T08:15:02;99156.34;;;16.83;77.14
24154;BME280;12312;53.362;-1.518;2022-08-20T08:17:28;99155.00;;;16.97;76.46
24154;BME280;12312;53.362;-1.518;2022-08-20T08:19:55;99162.56;;;16.84;76.70
24154;BME280;12312;53.362;-1.518;2022-08-20T08:22:21;99165.00;;;16.77;77.01
24154;BME280;12312;53.362;-1.518;2022-08-20T08:24:47;99165.88;;;16.78;77.21
24154;BME280;12312;53.362;-1.518;2022-08-20T08:27:14;99154.41;;;16.76;77.12
24154;BME280;12312;53.362;-1.518;2022-08-20T08:29:44;99153.19;;;16.70;77.08
24154;BME280;12312;53.362;-1.518;2022-08-20T08:32:10;99155.84;;;16.53;77.24
24154;BME280;12312;53.362;-1.518;2022-08-20T08:34:36;99148.25;;;16.39;78.58
24154;BME280;12312;53.362;-1.518;2022-08-20T08:37:03;99153.63;;;16.39;78.45
24154;BME280;12312;53.362;-1.518;2022-08-20T08:39:29;99154.06;;;16.44;78.68
24154;BME280;12312;53.362;-1.518;2022-08-20T08:41:58;99156.63;;;16.63;79.63
24154;BME280;12312;53.362;-1.518;2022-08-20T08:44:38;99147.00;;;16.87;77.34
24154;BME280;12312;53.362;-1.518;2022-08-20T08:47:23;99153.19;;;16.88;76.16
24154;BME280;12312;53.362;-1.518;2022-08-20T08:49:49;99161.13;;;17.07;76.79
24154;BME280;12312;53.362;-1.518;2022-08-20T08:52:18;99150.00;;;17.19;74.47
24154;BME280;12312;53.362;-1.518;2022-08-20T08:54:47;99149.94;;;17.46;74.52
24154;BME280;12312;53.362;-1.518;2022-08-20T08:57:13;99154.34;;;17.38;74.65
24154;BME280;12312;53.362;-1.518;2022-08-20T08:59:40;99148.47;;;17.34;74.38
24154;BME280;12312;53.362;-1.518;2022-08-20T09:02:06;99151.91;;;17.27;74.71
24154;BME280;12312;53.362;-1.518;2022-08-20T09:04:38;99145.13;;;17.23;74.49
24154;BME280;12312;53.362;-1.518;2022-08-20T09:07:08;99155.75;;;17.42;73.72
24154;BME280;12312;53.362;-1.518;2022-08-20T09:13:24;99143.84;;;17.62;71.64
24154;BME280;12312;53.362;-1.518;2022-08-20T09:15:52;99142.28;;;17.85;71.91
24154;BME280;12312;53.362;-1.518;2022-08-20T09:18:19;99150.44;;;17.93;71.63
24154;BME280;12312;53.362;-1.518;2022-08-20T09:20:45;99155.09;;;17.83;70.88
24154;BME280;12312;53.362;-1.518;2022-08-20T09:23:13;99149.69;;;17.83;71.08
24154;BME280;12312;53.362;-1.518;2022-08-20T09:25:39;99148.72;;;18.18;70.64
24154;BME280;12312;53.362;-1.518;2022-08-20T09:28:05;99155.78;;;18.44;70.12
24154;BME280;12312;53.362;-1.518;2022-08-20T09:30:32;99140.28;;;18.46;68.45
24154;BME280;12312;53.362;-1.518;2022-08-20T09:32:58;99149.31;;;18.71;69.35
24154;BME280;12312;53.362;-1.518;2022-08-20T09:35:27;99150.03;;;18.89;68.03
24154;BME280;12312;53.362;-1.518;2022-08-20T09:37:53;99150.94;;;19.21;66.65
24154;BME280;12312;53.362;-1.518;2022-08-20T09:40:20;99155.72;;;19.27;65.79
24154;BME280;12312;53.362;-1.518;2022-08-20T09:42:47;99152.47;;;19.24;65.33
24154;BME280;12312;53.362;-1.518;2022-08-20T09:45:14;99146.25;;;19.31;64.49
24154;BME280;12312;53.362;-1.518;2022-08-20T09:47:40;99150.22;;;18.95;64.83
24154;BME280;12312;53.362;-1.518;2022-08-20T09:50:07;99161.75;;;19.21;63.82
24154;BME280;12312;53.362;-1.518;2022-08-20T09:52:53;99145.09;;;19.50;62.33
24154;BME280;12312;53.362;-1.518;2022-08-20T09:55:30;99146.06;;;19.49;62.46
24154;BME280;12312;53.362;-1.518;2022-08-20T09:57:56;99144.94;;;19.60;61.07
24154;BME280;12312;53.362;-1.518;2022-08-20T10:00:22;99146.28;;;19.39;61.14
24154;BME280;12312;53.362;-1.518;2022-08-20T10:02:48;99142.38;;;19.42;61.60
24154;BME280;12312;53.362;-1.518;2022-08-20T10:05:14;99134.78;;;19.37;61.46
24154;BME280;12312;53.362;-1.518;2022-08-20T10:07:40;99144.91;;;19.43;61.27
24154;BME280;12312;53.362;-1.518;2022-08-20T10:10:09;99142.53;;;19.32;60.35
24154;BME280;12312;53.362;-1.518;2022-08-20T10:12:35;99133.13;;;19.36;60.68
24154;BME280;12312;53.362;-1.518;2022-08-20T10:15:01;99132.41;;;19.51;60.30
24154;BME280;12312;53.362;-1.518;2022-08-20T10:17:27;99138.50;;;19.69;59.83
24154;BME280;12312;53.362;-1.518;2022-08-20T10:19:53;99131.59;;;19.42;60.81
24154;BME280;12312;53.362;-1.518;2022-08-20T10:22:19;99136.13;;;19.41;60.31
24154;BME280;12312;53.362;-1.518;2022-08-20T10:24:45;99103.41;;;19.61;59.17
24154;BME280;12312;53.362;-1.518;2022-08-20T10:27:11;99126.19;;;19.42;59.44
24154;BME280;12312;53.362;-1.518;2022-08-20T10:29:36;99126.31;;;19.16;60.55
24154;BME280;12312;53.362;-1.518;2022-08-20T10:32:13;99137.13;;;19.32;59.15
24154;BME280;12312;53.362;-1.518;2022-08-20T10:34:41;99141.16;;;19.12;59.97
24154;BME280;12312;53.362;-1.518;2022-08-20T10:37:09;99133.25;;;19.43;59.01
24154;BME280;12312;53.362;-1.518;2022-08-20T10:39:38;99127.53;;;19.70;59.24
24154;BME280;12312;53.362;-1.518;2022-08-20T10:42:04;99128.97;;;20.05;58.56
24154;BME280;12312;53.362;-1.518;2022-08-20T10:44:30;99123.69;;;20.27;56.79
24154;BME280;12312;53.362;-1.518;2022-08-20T10:46:55;99122.84;;;20.27;56.31
24154;BME280;12312;53.362;-1.518;2022-08-20T10:49:21;99116.97;;;20.23;57.23
24154;BME280;12312;53.362;-1.518;2022-08-20T10:51:46;99113.66;;;20.44;57.22
24154;BME280;12312;53.362;-1.518;2022-08-20T10:54:12;99121.75;;;20.44;55.16
24154;BME280;12312;53.362;-1.518;2022-08-20T10:56:38;99119.56;;;20.47;54.02
24154;BME280;12312;53.362;-1.518;2022-08-20T10:59:03;99118.81;;;20.23;55.57
24154;BME280;12312;53.362;-1.518;2022-08-20T11:01:29;99111.03;;;20.12;56.87
24154;BME280;12312;53.362;-1.518;2022-08-20T11:03:54;99120.84;;;20.21;57.73
24154;BME280;12312;53.362;-1.518;2022-08-20T11:06:20;99103.28;;;20.25;56.41
24154;BME280;12312;53.362;-1.518;2022-08-20T11:08:46;99104.31;;;20.16;55.41
24154;BME280;12312;53.362;-1.518;2022-08-20T11:11:12;99117.66;;;20.01;55.72
24154;BME280;12312;53.362;-1.518;2022-08-20T11:13:37;99117.88;;;19.76;56.41
24154;BME280;12312;53.362;-1.518;2022-08-20T11:16:04;99119.59;;;19.53;57.04
24154;BME280;12312;53.362;-1.518;2022-08-20T11:18:30;99119.25;;;19.48;57.25
24154;BME280;12312;53.362;-1.518;2022-08-20T11:20:56;99120.78;;;19.58;56.84
24154;BME280;12312;53.362;-1.518;2022-08-20T11:23:22;99114.50;;;19.74;56.98
24154;BME280;12312;53.362;-1.518;2022-08-20T11:25:48;99115.78;;;20.18;55.97
24154;BME280;12312;53.362;-1.518;2022-08-20T11:28:14;99117.75;;;20.40;54.57
24154;BME280;12312;53.362;-1.518;2022-08-20T11:30:40;99118.09;;;20.37;54.15
24154;BME280;12312;53.362;-1.518;2022-08-20T11:33:06;99129.56;;;20.39;55.03
24154;BME280;12312;53.362;-1.518;2022-08-20T11:35:34;99116.50;;;21.57;51.28
24154;BME280;12312;53.362;-1.518;2022-08-20T11:38:00;99116.06;;;22.19;48.44
24154;BME280;12312;53.362;-1.518;2022-08-20T11:40:28;99122.56;;;22.39;48.50
24154;BME280;12312;53.362;-1.518;2022-08-20T11:42:54;99126.69;;;22.64;46.86
24154;BME280;12312;53.362;-1.518;2022-08-20T11:45:20;99115.94;;;22.42;46.75
24154;BME280;12312;53.362;-1.518;2022-08-20T11:47:45;99126.63;;;21.77;47.25
24154;BME280;12312;53.362;-1.518;2022-08-20T11:50:14;99130.34;;;21.17;49.00
24154;BME280;12312;53.362;-1.518;2022-08-20T11:52:41;99121.63;;;22.03;48.54
24154;BME280;12312;53.362;-1.518;2022-08-20T11:55:08;99116.50;;;21.71;48.30
24154;BME280;12312;53.362;-1.518;2022-08-20T11:57:36;99119.56;;;21.54;49.03
24154;BME280;12312;53.362;-1.518;2022-08-20T12:00:09;99118.22;;;20.74;50.98
24154;BME280;12312;53.362;-1.518;2022-08-20T12:02:38;99112.34;;;21.83;46.45
24154;BME280;12312;53.362;-1.518;2022-08-20T12:05:04;99104.00;;;22.87;44.33
24154;BME280;12312;53.362;-1.518;2022-08-20T12:07:30;99099.69;;;24.04;41.13
24154;BME280;12312;53.362;-1.518;2022-08-20T12:09:56;99105.66;;;24.61;39.24
24154;BME280;12312;53.362;-1.518;2022-08-20T12:12:23;99096.84;;;25.06;39.71
24154;BME280;12312;53.362;-1.518;2022-08-20T12:14:53;99090.81;;;25.30;38.17
24154;BME280;12312;53.362;-1.518;2022-08-20T12:17:22;99084.97;;;25.33;38.40
24154;BME280;12312;53.362;-1.518;2022-08-20T12:19:50;99095.47;;;25.62;37.68
24154;BME280;12312;53.362;-1.518;2022-08-20T12:22:17;99092.66;;;25.10;37.17
24154;BME280;12312;53.362;-1.518;2022-08-20T12:24:43;99090.66;;;25.38;38.36
24154;BME280;12312;53.362;-1.518;2022-08-20T12:27:19;99091.22;;;23.92;38.95
24154;BME280;12312;53.362;-1.518;2022-08-20T12:29:47;99100.22;;;24.20;39.61
24154;BME280;12312;53.362;-1.518;2022-08-20T12:32:13;99098.81;;;23.97;40.70
24154;BME280;12312;53.362;-1.518;2022-08-20T12:34:40;99096.41;;;23.60;41.38
24154;BME280;12312;53.362;-1.518;2022-08-20T12:37:09;99103.13;;;23.64;41.29
24154;BME280;12312;53.362;-1.518;2022-08-20T12:39:37;99102.78;;;22.89;43.82
24154;BME280;12312;53.362;-1.518;2022-08-20T12:42:05;99094.75;;;24.14;42.33
24154;BME280;12312;53.362;-1.518;2022-08-20T12:44:31;99098.31;;;25.09;39.27
24154;BME280;12312;53.362;-1.518;2022-08-20T12:47:09;99091.91;;;24.69;39.71
24154;BME280;12312;53.362;-1.518;2022-08-20T12:49:37;99093.16;;;24.26;39.99
24154;BME280;12312;53.362;-1.518;2022-08-20T12:52:04;99083.59;;;24.43;38.05
24154;BME280;12312;53.362;-1.518;2022-08-20T12:54:30;99098.22;;;23.53;40.63
24154;BME280;12312;53.362;-1.518;2022-08-20T12:56:55;99091.31;;;23.29;41.33
24154;BME280;12312;53.362;-1.518;2022-08-20T12:59:24;99073.41;;;24.17;39.24
24154;BME280;12312;53.362;-1.518;2022-08-20T13:01:51;99075.72;;;23.93;39.69
24154;BME280;12312;53.362;-1.518;2022-08-20T13:04:19;99078.78;;;24.04;40.31
24154;BME280;12312;53.362;-1.518;2022-08-20T13:06:44;99069.69;;;23.91;40.10